sensor_id;sensor_type;location;lat;lon;timestamp;pressure;altitude;pressure_sealevel;temperature;humidity
64023;BME280;50264;52.088;5.296;2023-05-02T00:00:55;101975.0;;;12.31;86.72
64023;BME280;50264;52.088;5.296;2023-05-02T00:02:31;101970.0;;;12.22;87.32
64023;BME280;50264;52.088;5.296;2023-05-02T00:05:44;101971.0;;;12.19;87.07
64023;BME280;50264;52.088;5.296;2023-05-02T00:07:20;101972.0;;;12.15;87.52
64023;BME280;50264;52.088;5.296;2023-05-02T00:08:57;101973.0;;;12.23;87.33
64023;BME280;50264;52.088;5.296;2023-05-02T00:12:09;101969.0;;;12.33;87.06
64023;BME280;50264;52.088;5.296;2023-05-02T00:13:45;101970.0;;;12.35;86.91
64023;BME280;50264;52.088;5.296;2023-05-02T00:15:21;101966.0;;;12.34;87.0
64023;BME280;50264;52.088;5.296;2023-05-02T00:18:34;101969.0;;;12.3;87.19
64023;BME280;50264;52.088;5.296;2023-05-02T00:20:10;101963.0;;;12.2;86.98
64023;BME280;50264;52.088;5.296;2023-05-02T00:21:47;101967.0;;;12.18;87.78
64023;BME280;50264;52.088;5.296;2023-05-02T00:23:23;101964.0;;;12.18;87.65
64023;BME280;50264;52.088;5.296;2023-05-02T00:26:36;101969.0;;;12.25;87.87
64023;BME280;50264;52.088;5.296;2023-05-02T00:28:13;101972.0;;;12.2;87.4
64023;BME280;50264;52.088;5.296;2023-05-02T00:29:49;101967.0;;;12.19;87.71
64023;BME280;50264;52.088;5.296;2023-05-02T00:33:01;101974.0;;;12.23;87.94
64023;BME280;50264;52.088;5.296;2023-05-02T00:34:37;101977.0;;;12.17;87.84
64023;BME280;50264;52.088;5.296;2023-05-02T00:36:14;101978.0;;;12.25;87.9
64023;BME280;50264;52.088;5.296;2023-05-02T00:39:27;101978.0;;;12.33;87.33
64023;BME280;50264;52.088;5.296;2023-05-02T00:41:03;101982.0;;;12.25;87.33
64023;BME280;50264;52.088;5.296;2023-05-02T00:42:39;101973.0;;;12.31;86.75
64023;BME280;50264;52.088;5.296;2023-05-02T00:44:15;101973.0;;;12.34;86.74
64023;BME280;50264;52.088;5.296;2023-05-02T00:47:28;101971.0;;;12.29;87.45
64023;BME280;50264;52.088;5.296;2023-05-02T00:49:04;101972.0;;;12.32;86.95
64023;BME280;50264;52.088;5.296;2023-05-02T00:50:41;101975.0;;;12.34;86.56
64023;BME280;50264;52.088;5.296;2023-05-02T00:53:55;101981.0;;;12.38;87.16
64023;BME280;50264;52.088;5.296;2023-05-02T00:55:31;101984.0;;;12.31;86.3
64023;BME280;50264;52.088;5.296;2023-05-02T00:57:07;101992.0;;;12.28;87.09
64023;BME280;50264;52.088;5.296;2023-05-02T01:00:25;101995.0;;;12.2;87.33
64023;BME280;50264;52.088;5.296;2023-05-02T01:02:11;102003.0;;;12.22;87.35
64023;BME280;50264;52.088;5.296;2023-05-02T01:04:13;102005.0;;;12.28;86.83
64023;BME280;50264;52.088;5.296;2023-05-02T01:06:02;102002.0;;;12.2;87.09
64023;BME280;50264;52.088;5.296;2023-05-02T01:08:04;102000.0;;;12.17;87.42
64023;BME280;50264;52.088;5.296;2023-05-02T01:09:52;102005.0;;;12.12;87.36
64023;BME280;50264;52.088;5.296;2023-05-02T01:11:43;101998.0;;;12.11;87.66
64023;BME280;50264;52.088;5.296;2023-05-02T01:15:13;101997.0;;;12.09;87.99
64023;BME280;50264;52.088;5.296;2023-05-02T01:16:51;101995.0;;;12.15;87.99
64023;BME280;50264;52.088;5.296;2023-05-02T01:18:30;101994.0;;;12.17;87.98
64023;BME280;50264;52.088;5.296;2023-05-02T01:20:13;101999.0;;;12.23;87.55
64023;BME280;50264;52.088;5.296;2023-05-02T01:23:37;102002.0;;;12.1;88.26
64023;BME280;50264;52.088;5.296;2023-05-02T01:25:25;102006.0;;;12.03;88.73
64023;BME280;50264;52.088;5.296;2023-05-02T01:27:11;102010.0;;;12.11;88.88
64023;BME280;50264;52.088;5.296;2023-05-02T01:28:54;102010.0;;;12.01;88.76
64023;BME280;50264;52.088;5.296;2023-05-02T01:33:51;102012.0;;;11.89;89.14
64023;BME280;50264;52.088;5.296;2023-05-02T01:35:29;102020.0;;;11.89;88.57
64023;BME280;50264;52.088;5.296;2023-05-02T01:37:07;102026.0;;;11.73;88.52
64023;BME280;50264;52.088;5.296;2023-05-02T01:38:48;102032.0;;;11.79;88.11
64023;BME280;50264;52.088;5.296;2023-05-02T01:42:04;102036.0;;;11.76;87.09
64023;BME280;50264;52.088;5.296;2023-05-02T01:43:40;102033.0;;;11.7;87.05
64023;BME280;50264;52.088;5.296;2023-05-02T01:45:19;102034.0;;;11.82;86.34
64023;BME280;50264;52.088;5.296;2023-05-02T01:48:35;102041.0;;;11.88;85.29
64023;BME280;50264;52.088;5.296;2023-05-02T01:50:15;102052.0;;;11.8;85.64
64023;BME280;50264;52.088;5.296;2023-05-02T01:51:53;102049.0;;;11.79;85.87
64023;BME280;50264;52.088;5.296;2023-05-02T01:53:32;102053.0;;;11.81;85.78
64023;BME280;50264;52.088;5.296;2023-05-02T01:56:50;102058.0;;;11.87;85.56
64023;BME280;50264;52.088;5.296;2023-05-02T01:58:28;102059.0;;;11.91;84.66
64023;BME280;50264;52.088;5.296;2023-05-02T02:00:07;102057.0;;;11.81;85.26
64023;BME280;50264;52.088;5.296;2023-05-02T02:01:47;102055.0;;;11.68;84.46
64023;BME280;50264;52.088;5.296;2023-05-02T02:05:04;102063.0;;;11.67;84.61
64023;BME280;50264;52.088;5.296;2023-05-02T02:06:45;102061.0;;;11.58;85.69
64023;BME280;50264;52.088;5.296;2023-05-02T02:08:34;102057.0;;;11.57;85.58
64023;BME280;50264;52.088;5.296;2023-05-02T02:10:10;102066.0;;;11.58;85.36
64023;BME280;50264;52.088;5.296;2023-05-02T02:13:32;102066.0;;;11.65;84.43
64023;BME280;50264;52.088;5.296;2023-05-02T02:15:17;102069.0;;;11.55;83.51
64023;BME280;50264;52.088;5.296;2023-05-02T02:17:00;102074.0;;;11.45;83.68
64023;BME280;50264;52.088;5.296;2023-05-02T02:18:37;102077.0;;;11.38;83.39
64023;BME280;50264;52.088;5.296;2023-05-02T02:21:52;102082.0;;;11.36;83.65
64023;BME280;50264;52.088;5.296;2023-05-02T02:23:32;102089.0;;;11.21;83.26
64023;BME280;50264;52.088;5.296;2023-05-02T02:25:11;102088.0;;;11.33;84.05
64023;BME280;50264;52.088;5.296;2023-05-02T02:26:50;102092.0;;;11.32;82.46
64023;BME280;50264;52.088;5.296;2023-05-02T02:30:03;102094.0;;;11.28;81.69
64023;BME280;50264;52.088;5.296;2023-05-02T02:33:16;102106.0;;;11.35;81.86
64023;BME280;50264;52.088;5.296;2023-05-02T02:36:33;102108.0;;;11.45;81.23
64023;BME280;50264;52.088;5.296;2023-05-02T02:38:18;102110.0;;;11.35;80.77
64023;BME280;50264;52.088;5.296;2023-05-02T02:40:04;102115.0;;;11.31;82.27
64023;BME280;50264;52.088;5.296;2023-05-02T02:41:49;102117.0;;;11.31;81.17
64023;BME280;50264;52.088;5.296;2023-05-02T02:43:33;102111.0;;;11.2;81.02
64023;BME280;50264;52.088;5.296;2023-05-02T02:47:08;102110.0;;;11.25;81.09
64023;BME280;50264;52.088;5.296;2023-05-02T02:49:07;102111.0;;;11.13;79.56
64023;BME280;50264;52.088;5.296;2023-05-02T02:50:58;102112.0;;;11.11;80.52
64023;BME280;50264;52.088;5.296;2023-05-02T02:52:47;102120.0;;;11.14;79.58
64023;BME280;50264;52.088;5.296;2023-05-02T02:54:32;102118.0;;;11.1;79.52
64023;BME280;50264;52.088;5.296;2023-05-02T02:56:14;102123.0;;;11.24;79.16
64023;BME280;50264;52.088;5.296;2023-05-02T02:59:41;102122.0;;;11.21;78.81
64023;BME280;50264;52.088;5.296;2023-05-02T03:01:23;102127.0;;;11.15;79.23
64023;BME280;50264;52.088;5.296;2023-05-02T03:03:01;102127.0;;;11.13;79.55
64023;BME280;50264;52.088;5.296;2023-05-02T03:04:39;102132.0;;;11.06;78.98
64023;BME280;50264;52.088;5.296;2023-05-02T03:07:54;102135.0;;;11.05;78.3
64023;BME280;50264;52.088;5.296;2023-05-02T03:09:39;102133.0;;;11.07;79.37
64023;BME280;50264;52.088;5.296;2023-05-02T03:11:15;102138.0;;;11.12;80.0
64023;BME280;50264;52.088;5.296;2023-05-02T03:12:51;102138.0;;;10.92;79.22
64023;BME280;50264;52.088;5.296;2023-05-02T03:16:23;102139.0;;;10.99;79.97
64023;BME280;50264;52.088;5.296;2023-05-02T03:18:23;102147.0;;;11.01;80.22
64023;BME280;50264;52.088;5.296;2023-05-02T03:19:59;102147.0;;;10.98;79.86
64023;BME280;50264;52.088;5.296;2023-05-02T03:21:35;102152.0;;;11.09;79.08
64023;BME280;50264;52.088;5.296;2023-05-02T03:24:47;102150.0;;;11.08;79.86
64023;BME280;50264;52.088;5.296;2023-05-02T03:26:24;102149.0;;;11.05;79.84
64023;BME280;50264;52.088;5.296;2023-05-02T03:28:00;102155.0;;;11.03;79.97
64023;BME280;50264;52.088;5.296;2023-05-02T03:29:36;102158.0;;;11.01;79.83
64023;BME280;50264;52.088;5.296;2023-05-02T03:32:48;102162.0;;;10.98;79.66
64023;BME280;50264;52.088;5.296;2023-05-02T03:34:26;102161.0;;;10.99;79.69
64023;BME280;50264;52.088;5.296;2023-05-02T03:36:03;102164.0;;;11.03;79.37
64023;BME280;50264;52.088;5.296;2023-05-02T03:39:15;102164.0;;;11.02;79.17
64023;BME280;50264;52.088;5.296;2023-05-02T03:40:51;102165.0;;;10.82;79.3
64023;BME280;50264;52.088;5.296;2023-05-02T03:42:27;102178.0;;;10.9;80.16
64023;BME280;50264;52.088;5.296;2023-05-02T03:45:40;102177.0;;;10.96;80.64
64023;BME280;50264;52.088;5.296;2023-05-02T03:47:16;102178.0;;;10.92;79.42
64023;BME280;50264;52.088;5.296;2023-05-02T03:48:52;102180.0;;;10.96;79.52
64023;BME280;50264;52.088;5.296;2023-05-02T03:50:28;102178.0;;;10.99;79.52
64023;BME280;50264;52.088;5.296;2023-05-02T03:53:41;102180.0;;;11.0;79.36
64023;BME280;50264;52.088;5.296;2023-05-02T03:55:17;102180.0;;;10.92;79.55
64023;BME280;50264;52.088;5.296;2023-05-02T03:56:53;102180.0;;;10.81;78.49
64023;BME280;50264;52.088;5.296;2023-05-02T04:00:07;102183.0;;;10.89;79.03
64023;BME280;50264;52.088;5.296;2023-05-02T04:01:43;102182.0;;;10.9;78.42
64023;BME280;50264;52.088;5.296;2023-05-02T04:03:20;102190.0;;;10.87;78.58
64023;BME280;50264;52.088;5.296;2023-05-02T04:08:08;102190.0;;;10.82;78.66
64023;BME280;50264;52.088;5.296;2023-05-02T04:09:44;102193.0;;;10.82;77.58
64023;BME280;50264;52.088;5.296;2023-05-02T04:11:21;102196.0;;;10.79;77.45
64023;BME280;50264;52.088;5.296;2023-05-02T04:14:33;102200.0;;;10.75;77.13
64023;BME280;50264;52.088;5.296;2023-05-02T04:16:09;102201.0;;;10.79;77.69
64023;BME280;50264;52.088;5.296;2023-05-02T04:17:45;102205.0;;;10.67;76.78
64023;BME280;50264;52.088;5.296;2023-05-02T04:20:58;102205.0;;;10.59;77.74
64023;BME280;50264;52.088;5.296;2023-05-02T04:22:34;102206.0;;;10.55;77.84
64023;BME280;50264;52.088;5.296;2023-05-02T04:24:10;102207.0;;;10.63;78.3
64023;BME280;50264;52.088;5.296;2023-05-02T04:27:27;102208.0;;;10.53;77.3
64023;BME280;50264;52.088;5.296;2023-05-02T04:29:04;102217.0;;;10.49;78.19
64023;BME280;50264;52.088;5.296;2023-05-02T04:30:40;102220.0;;;10.5;77.87
64023;BME280;50264;52.088;5.296;2023-05-02T04:32:16;102227.0;;;10.23;77.62
64023;BME280;50264;52.088;5.296;2023-05-02T04:35:28;102234.0;;;10.3;78.97
64023;BME280;50264;52.088;5.296;2023-05-02T04:37:05;102233.0;;;10.44;78.11
64023;BME280;50264;52.088;5.296;2023-05-02T04:38:41;102238.0;;;10.44;78.45
64023;BME280;50264;52.088;5.296;2023-05-02T04:41:53;102246.0;;;10.47;78.97
64023;BME280;50264;52.088;5.296;2023-05-02T04:43:29;102250.0;;;10.63;77.94
64023;BME280;50264;52.088;5.296;2023-05-02T04:45:06;102255.0;;;10.7;78.64
64023;BME280;50264;52.088;5.296;2023-05-02T04:48:19;102259.0;;;10.71;77.91
64023;BME280;50264;52.088;5.296;2023-05-02T04:49:55;102257.0;;;10.72;77.52
64023;BME280;50264;52.088;5.296;2023-05-02T04:51:31;102257.0;;;10.78;77.38
64023;BME280;50264;52.088;5.296;2023-05-02T04:54:43;102257.0;;;10.71;77.74
64023;BME280;50264;52.088;5.296;2023-05-02T04:56:19;102264.0;;;10.69;77.92
64023;BME280;50264;52.088;5.296;2023-05-02T04:57:56;102265.0;;;10.65;78.3
64023;BME280;50264;52.088;5.296;2023-05-02T04:59:33;102276.0;;;10.72;78.31
64023;BME280;50264;52.088;5.296;2023-05-02T05:02:48;102277.0;;;10.72;78.09
64023;BME280;50264;52.088;5.296;2023-05-02T05:04:24;102282.0;;;10.71;77.83
64023;BME280;50264;52.088;5.296;2023-05-02T05:06:00;102287.0;;;10.61;78.08
64023;BME280;50264;52.088;5.296;2023-05-02T05:09:13;102285.0;;;10.57;78.03
64023;BME280;50264;52.088;5.296;2023-05-02T05:10:49;102294.0;;;10.59;78.47
64023;BME280;50264;52.088;5.296;2023-05-02T05:12:26;102295.0;;;10.59;78.16
64023;BME280;50264;52.088;5.296;2023-05-02T05:15:38;102297.0;;;10.57;78.72
64023;BME280;50264;52.088;5.296;2023-05-02T05:17:15;102300.0;;;10.58;78.34
64023;BME280;50264;52.088;5.296;2023-05-02T05:18:52;102296.0;;;10.56;78.13
64023;BME280;50264;52.088;5.296;2023-05-02T05:20:28;102302.0;;;10.58;79.27
64023;BME280;50264;52.088;5.296;2023-05-02T05:23:40;102300.0;;;10.67;78.89
64023;BME280;50264;52.088;5.296;2023-05-02T05:25:17;102305.0;;;10.66;77.95
64023;BME280;50264;52.088;5.296;2023-05-02T05:26:53;102306.0;;;10.58;79.52
64023;BME280;50264;52.088;5.296;2023-05-02T05:30:06;102310.0;;;10.54;78.22
64023;BME280;50264;52.088;5.296;2023-05-02T05:31:42;102310.0;;;10.57;79.02
64023;BME280;50264;52.088;5.296;2023-05-02T05:33:18;102309.0;;;10.6;79.19
64023;BME280;50264;52.088;5.296;2023-05-02T05:36:31;102311.0;;;10.64;79.27
64023;BME280;50264;52.088;5.296;2023-05-02T05:38:07;102316.0;;;10.66;77.95
64023;BME280;50264;52.088;5.296;2023-05-02T05:41:21;102321.0;;;10.67;76.77
64023;BME280;50264;52.088;5.296;2023-05-02T05:44:33;102325.0;;;10.67;78.91
64023;BME280;50264;52.088;5.296;2023-05-02T05:46:09;102331.0;;;10.72;77.61
64023;BME280;50264;52.088;5.296;2023-05-02T05:47:45;102341.0;;;10.6;78.66
64023;BME280;50264;52.088;5.296;2023-05-02T05:51:02;102340.0;;;10.47;75.81
64023;BME280;50264;52.088;5.296;2023-05-02T05:52:38;102346.0;;;10.49;76.08
64023;BME280;50264;52.088;5.296;2023-05-02T05:54:15;102350.0;;;10.44;75.91
64023;BME280;50264;52.088;5.296;2023-05-02T05:57:28;102360.0;;;10.44;75.24
64023;BME280;50264;52.088;5.296;2023-05-02T05:59:04;102358.0;;;10.56;75.08
64023;BME280;50264;52.088;5.296;2023-05-02T06:00:40;102358.0;;;10.62;74.38
64023;BME280;50264;52.088;5.296;2023-05-02T06:02:17;102366.0;;;10.54;73.61
64023;BME280;50264;52.088;5.296;2023-05-02T06:05:29;102370.0;;;10.52;75.24
64023;BME280;50264;52.088;5.296;2023-05-02T06:07:06;102373.0;;;10.56;74.48
64023;BME280;50264;52.088;5.296;2023-05-02T06:08:42;102376.0;;;10.67;75.55
64023;BME280;50264;52.088;5.296;2023-05-02T06:11:55;102375.0;;;10.66;74.52
64023;BME280;50264;52.088;5.296;2023-05-02T06:13:31;102381.0;;;10.68;75.44
64023;BME280;50264;52.088;5.296;2023-05-02T06:15:07;102385.0;;;10.78;74.61
64023;BME280;50264;52.088;5.296;2023-05-02T06:19:56;102387.0;;;10.73;74.77
64023;BME280;50264;52.088;5.296;2023-05-02T06:21:32;102395.0;;;10.72;72.99
64023;BME280;50264;52.088;5.296;2023-05-02T06:23:08;102396.0;;;10.74;70.72
64023;BME280;50264;52.088;5.296;2023-05-02T06:26:20;102396.0;;;10.8;73.27
64023;BME280;50264;52.088;5.296;2023-05-02T06:27:56;102403.0;;;10.95;71.44
64023;BME280;50264;52.088;5.296;2023-05-02T06:29:32;102404.0;;;10.91;71.58
64023;BME280;50264;52.088;5.296;2023-05-02T06:32:45;102407.0;;;11.07;71.62
64023;BME280;50264;52.088;5.296;2023-05-02T06:34:21;102414.00000000001;;;10.93;70.45
64023;BME280;50264;52.088;5.296;2023-05-02T06:35:58;102416.00000000001;;;11.11;69.52
64023;BME280;50264;52.088;5.296;2023-05-02T06:39:09;102417.0;;;11.1;70.91
64023;BME280;50264;52.088;5.296;2023-05-02T06:40:46;102416.00000000001;;;11.04;71.52
64023;BME280;50264;52.088;5.296;2023-05-02T06:42:23;102413.00000000001;;;11.14;70.52
64023;BME280;50264;52.088;5.296;2023-05-02T06:45:35;102419.0;;;11.28;70.24
64023;BME280;50264;52.088;5.296;2023-05-02T06:47:11;102420.0;;;11.22;68.0
64023;BME280;50264;52.088;5.296;2023-05-02T06:48:47;102426.0;;;11.14;67.37
64023;BME280;50264;52.088;5.296;2023-05-02T06:50:24;102428.0;;;11.08;69.16
64023;BME280;50264;52.088;5.296;2023-05-02T06:53:36;102433.99999999999;;;11.29;69.16
64023;BME280;50264;52.088;5.296;2023-05-02T06:55:12;102443.0;;;11.34;67.63
64023;BME280;50264;52.088;5.296;2023-05-02T06:56:48;102449.0;;;11.27;67.87
64023;BME280;50264;52.088;5.296;2023-05-02T07:00:01;102449.0;;;11.25;68.56
64023;BME280;50264;52.088;5.296;2023-05-02T07:01:37;102456.0;;;11.12;67.62
64023;BME280;50264;52.088;5.296;2023-05-02T07:03:13;102458.99999999999;;;11.17;69.62
64023;BME280;50264;52.088;5.296;2023-05-02T07:06:25;102464.00000000001;;;11.17;67.67
64023;BME280;50264;52.088;5.296;2023-05-02T07:08:02;102466.00000000001;;;11.28;70.11
64023;BME280;50264;52.088;5.296;2023-05-02T07:09:39;102466.00000000001;;;11.28;69.19
64023;BME280;50264;52.088;5.296;2023-05-02T07:11:15;102469.0;;;11.41;69.95
64023;BME280;50264;52.088;5.296;2023-05-02T07:14:27;102471.0;;;11.45;68.58
64023;BME280;50264;52.088;5.296;2023-05-02T07:16:04;102477.0;;;11.5;67.35
64023;BME280;50264;52.088;5.296;2023-05-02T07:17:41;102480.0;;;11.46;67.73
64023;BME280;50264;52.088;5.296;2023-05-02T07:20:55;102478.0;;;11.44;67.47
64023;BME280;50264;52.088;5.296;2023-05-02T07:24:07;102486.99999999999;;;11.45;67.41
64023;BME280;50264;52.088;5.296;2023-05-02T07:27:19;102482.0;;;11.48;68.72
64023;BME280;50264;52.088;5.296;2023-05-02T07:28:56;102484.99999999999;;;11.46;67.95
64023;BME280;50264;52.088;5.296;2023-05-02T07:30:32;102492.0;;;11.52;68.0
64023;BME280;50264;52.088;5.296;2023-05-02T07:33:44;102495.0;;;11.49;68.91
64023;BME280;50264;52.088;5.296;2023-05-02T07:35:20;102489.00000000001;;;11.4;69.06
64023;BME280;50264;52.088;5.296;2023-05-02T07:36:57;102492.0;;;11.51;69.73
64023;BME280;50264;52.088;5.296;2023-05-02T07:38:34;102496.0;;;11.59;69.39
64023;BME280;50264;52.088;5.296;2023-05-02T07:41:46;102501.0;;;11.42;67.48
64023;BME280;50264;52.088;5.296;2023-05-02T07:43:22;102506.0;;;11.31;67.28
64023;BME280;50264;52.088;5.296;2023-05-02T07:44:58;102513.00000000001;;;11.34;66.94
64023;BME280;50264;52.088;5.296;2023-05-02T07:48:11;102515.00000000001;;;11.43;67.3
64023;BME280;50264;52.088;5.296;2023-05-02T07:49:49;102517.0;;;11.46;67.23
64023;BME280;50264;52.088;5.296;2023-05-02T07:51:25;102520.0;;;11.09;66.44
64023;BME280;50264;52.088;5.296;2023-05-02T07:54:37;102517.0;;;11.1;67.85
64023;BME280;50264;52.088;5.296;2023-05-02T07:56:14;102515.00000000001;;;11.07;68.14
64023;BME280;50264;52.088;5.296;2023-05-02T07:57:50;102520.0;;;11.07;68.89
64023;BME280;50264;52.088;5.296;2023-05-02T07:59:26;102525.0;;;11.14;70.37
64023;BME280;50264;52.088;5.296;2023-05-02T08:02:39;102527.0;;;11.11;68.75
64023;BME280;50264;52.088;5.296;2023-05-02T08:04:16;102533.99999999999;;;10.9;66.58
64023;BME280;50264;52.088;5.296;2023-05-02T08:05:53;102533.0;;;10.98;69.55
64023;BME280;50264;52.088;5.296;2023-05-02T08:09:07;102534.99999999999;;;11.09;68.94
64023;BME280;50264;52.088;5.296;2023-05-02T08:10:43;102534.99999999999;;;11.02;66.0
64023;BME280;50264;52.088;5.296;2023-05-02T08:12:19;102538.00000000001;;;11.0;65.66
64023;BME280;50264;52.088;5.296;2023-05-02T08:15:32;102538.00000000001;;;10.92;66.45
64023;BME280;50264;52.088;5.296;2023-05-02T08:17:08;102542.0;;;10.94;66.16
64023;BME280;50264;52.088;5.296;2023-05-02T08:18:44;102540.00000000001;;;10.82;66.05
64023;BME280;50264;52.088;5.296;2023-05-02T08:20:20;102544.0;;;11.02;67.16
64023;BME280;50264;52.088;5.296;2023-05-02T08:23:33;102546.0;;;11.11;66.25
64023;BME280;50264;52.088;5.296;2023-05-02T08:25:09;102553.0;;;10.99;64.99
64023;BME280;50264;52.088;5.296;2023-05-02T08:26:45;102552.0;;;11.04;66.64
64023;BME280;50264;52.088;5.296;2023-05-02T08:29:57;102559.99999999999;;;11.18;66.74
64023;BME280;50264;52.088;5.296;2023-05-02T08:31:33;102559.99999999999;;;11.05;67.11
64023;BME280;50264;52.088;5.296;2023-05-02T08:33:10;102565.00000000001;;;10.95;65.2
64023;BME280;50264;52.088;5.296;2023-05-02T08:36:23;102566.00000000001;;;10.87;66.0
64023;BME280;50264;52.088;5.296;2023-05-02T08:37:59;102571.0;;;11.0;65.1
64023;BME280;50264;52.088;5.296;2023-05-02T08:39:35;102575.0;;;11.16;65.53
64023;BME280;50264;52.088;5.296;2023-05-02T08:41:13;102577.0;;;11.25;65.06
64023;BME280;50264;52.088;5.296;2023-05-02T08:44:27;102582.0;;;11.3;63.37
64023;BME280;50264;52.088;5.296;2023-05-02T08:46:04;102581.0;;;11.36;62.29
64023;BME280;50264;52.088;5.296;2023-05-02T08:47:41;102588.00000000001;;;11.43;61.8
64023;BME280;50264;52.088;5.296;2023-05-02T08:50:56;102584.99999999999;;;11.59;61.73
64023;BME280;50264;52.088;5.296;2023-05-02T08:52:34;102583.99999999999;;;11.57;60.29
64023;BME280;50264;52.088;5.296;2023-05-02T08:54:15;102582.0;;;11.73;63.22
64023;BME280;50264;52.088;5.296;2023-05-02T08:55:52;102583.0;;;11.74;61.67
64023;BME280;50264;52.088;5.296;2023-05-02T08:59:05;102584.99999999999;;;11.93;62.14
64023;BME280;50264;52.088;5.296;2023-05-02T09:00:41;102595.0;;;11.93;59.47
64023;BME280;50264;52.088;5.296;2023-05-02T09:02:23;102590.00000000001;;;11.92;58.57
64023;BME280;50264;52.088;5.296;2023-05-02T09:04:30;102592.0;;;11.88;60.4
64023;BME280;50264;52.088;5.296;2023-05-02T09:07:50;102592.0;;;11.98;57.54
64023;BME280;50264;52.088;5.296;2023-05-02T09:09:26;102592.0;;;12.18;59.91
64023;BME280;50264;52.088;5.296;2023-05-02T09:11:03;102595.0;;;12.17;57.77
64023;BME280;50264;52.088;5.296;2023-05-02T09:12:39;102592.0;;;11.98;57.43
64023;BME280;50264;52.088;5.296;2023-05-02T09:15:56;102601.0;;;12.04;57.96
64023;BME280;50264;52.088;5.296;2023-05-02T09:17:38;102594.0;;;11.94;57.66
64023;BME280;50264;52.088;5.296;2023-05-02T09:19:23;102598.0;;;11.91;53.96
64023;BME280;50264;52.088;5.296;2023-05-02T09:21:03;102594.0;;;11.99;55.62
64023;BME280;50264;52.088;5.296;2023-05-02T09:24:24;102597.0;;;12.17;58.76
64023;BME280;50264;52.088;5.296;2023-05-02T09:26:00;102599.0;;;12.18;55.96
64023;BME280;50264;52.088;5.296;2023-05-02T09:27:54;102602.0;;;12.22;56.12
64023;BME280;50264;52.088;5.296;2023-05-02T09:29:32;102609.99999999999;;;12.4;57.36
64023;BME280;50264;52.088;5.296;2023-05-02T09:32:48;102608.0;;;12.26;54.18
64023;BME280;50264;52.088;5.296;2023-05-02T09:34:25;102609.99999999999;;;12.17;52.95
64023;BME280;50264;52.088;5.296;2023-05-02T09:36:02;102607.0;;;12.34;54.88
64023;BME280;50264;52.088;5.296;2023-05-02T09:39:17;102608.99999999999;;;12.09;51.7
64023;BME280;50264;52.088;5.296;2023-05-02T09:40:56;102622.0;;;12.29;52.11
64023;BME280;50264;52.088;5.296;2023-05-02T09:42:32;102615.00000000001;;;12.35;52.0
64023;BME280;50264;52.088;5.296;2023-05-02T09:44:09;102619.0;;;12.59;54.77
64023;BME280;50264;52.088;5.296;2023-05-02T09:47:32;102622.0;;;12.44;51.86
64023;BME280;50264;52.088;5.296;2023-05-02T09:49:08;102621.0;;;12.41;52.82
64023;BME280;50264;52.088;5.296;2023-05-02T09:50:44;102633.99999999999;;;12.49;52.26
64023;BME280;50264;52.088;5.296;2023-05-02T09:52:20;102629.0;;;12.53;51.44
64023;BME280;50264;52.088;5.296;2023-05-02T09:55:32;102625.0;;;12.57;51.98
64023;BME280;50264;52.088;5.296;2023-05-02T09:57:09;102630.0;;;12.61;52.63
64023;BME280;50264;52.088;5.296;2023-05-02T09:58:45;102628.0;;;12.65;51.93
64023;BME280;50264;52.088;5.296;2023-05-02T10:02:00;102624.0;;;12.52;49.45
64023;BME280;50264;52.088;5.296;2023-05-02T10:03:36;102626.0;;;12.83;53.37
64023;BME280;50264;52.088;5.296;2023-05-02T10:05:16;102623.0;;;12.75;49.43
64023;BME280;50264;52.088;5.296;2023-05-02T10:08:32;102621.0;;;12.91;48.89
64023;BME280;50264;52.088;5.296;2023-05-02T10:10:10;102620.0;;;13.15;51.92
64023;BME280;50264;52.088;5.296;2023-05-02T10:11:51;102623.0;;;13.25;48.92
64023;BME280;50264;52.088;5.296;2023-05-02T10:13:31;102632.0;;;13.37;50.77
64023;BME280;50264;52.088;5.296;2023-05-02T10:16:58;102633.0;;;13.37;48.36
64023;BME280;50264;52.088;5.296;2023-05-02T10:18:40;102641.00000000001;;;13.69;49.07
64023;BME280;50264;52.088;5.296;2023-05-02T10:20:21;102636.99999999999;;;13.69;46.27
64023;BME280;50264;52.088;5.296;2023-05-02T10:22:01;102642.0;;;13.67;49.35
64023;BME280;50264;52.088;5.296;2023-05-02T10:25:18;102634.99999999999;;;13.79;50.09
64023;BME280;50264;52.088;5.296;2023-05-02T10:26:55;102646.0;;;13.73;47.3
64023;BME280;50264;52.088;5.296;2023-05-02T10:28:31;102645.0;;;13.75;47.0
64023;BME280;50264;52.088;5.296;2023-05-02T10:30:09;102645.0;;;13.51;48.79
64023;BME280;50264;52.088;5.296;2023-05-02T10:33:25;102645.0;;;13.88;52.68
64023;BME280;50264;52.088;5.296;2023-05-02T10:35:03;102643.0;;;13.97;48.51
64023;BME280;50264;52.088;5.296;2023-05-02T10:36:40;102644.0;;;13.94;47.87
64023;BME280;50264;52.088;5.296;2023-05-02T10:39:55;102650.0;;;14.15;50.33
64023;BME280;50264;52.088;5.296;2023-05-02T10:41:33;102652.0;;;13.99;49.61
64023;BME280;50264;52.088;5.296;2023-05-02T10:43:13;102644.0;;;13.94;49.28
64023;BME280;50264;52.088;5.296;2023-05-02T10:44:50;102642.0;;;14.11;46.56
64023;BME280;50264;52.088;5.296;2023-05-02T10:48:15;102644.0;;;14.25;46.77
64023;BME280;50264;52.088;5.296;2023-05-02T10:49:55;102643.0;;;14.38;47.35
64023;BME280;50264;52.088;5.296;2023-05-02T10:51:32;102649.0;;;14.2;48.28
64023;BME280;50264;52.088;5.296;2023-05-02T10:53:22;102646.0;;;14.18;47.25
64023;BME280;50264;52.088;5.296;2023-05-02T10:57:05;102648.0;;;14.34;43.38
64023;BME280;50264;52.088;5.296;2023-05-02T10:58:42;102641.00000000001;;;14.45;44.74
64023;BME280;50264;52.088;5.296;2023-05-02T11:00:20;102644.0;;;14.61;46.01
64023;BME280;50264;52.088;5.296;2023-05-02T11:01:57;102642.0;;;15.03;47.56
64023;BME280;50264;52.088;5.296;2023-05-02T11:04:06;102653.0;;;14.76;43.46
64023;BME280;50264;52.088;5.296;2023-05-02T11:06:17;102654.0;;;14.49;45.46
64023;BME280;50264;52.088;5.296;2023-05-02T11:08:29;102647.0;;;14.46;46.93